createdAt,value
2017-12-04T00:21:27.017Z,9.25
2017-12-04T00:23:54.883Z,8.85
2017-12-04T00:26:22.760Z,13.43
2017-12-04T00:28:50.658Z,11.93
2017-12-04T00:31:19.092Z,12.35
2017-12-04T00:33:46.981Z,12.40
2017-12-04T00:36:14.467Z,11.38
2017-12-04T00:38:42.871Z,11.40
2017-12-04T00:41:10.351Z,12.77
2017-12-04T00:43:38.256Z,11.38
2017-12-04T00:46:06.687Z,11.63
2017-12-04T00:48:34.176Z,10.20
2017-12-04T00:51:02.072Z,10.77
2017-12-04T00:53:29.553Z,10.95
2017-12-04T00:55:59.030Z,11.10
2017-12-04T00:58:26.525Z,9.95
2017-12-04T01:00:54.007Z,10.75
2017-12-04T01:03:21.905Z,11.30
2017-12-04T01:05:49.387Z,10.30
2017-12-04T01:08:16.882Z,11.55
2017-12-04T01:10:44.361Z,10.48
2017-12-04T01:13:12.249Z,10.52
2017-12-04T01:15:39.726Z,11.25
2017-12-04T01:18:09.147Z,9.82
2017-12-04T01:20:36.622Z,10.80
2017-12-04T01:23:04.122Z,9.80
2017-12-04T01:25:31.611Z,12.18
2017-12-04T01:27:59.099Z,9.90
2017-12-04T01:30:26.582Z,9.88
2017-12-04T01:32:55.011Z,9.40
2017-12-04T01:35:23.760Z,9.45
2017-12-04T01:37:51.239Z,11.60
2017-12-04T01:40:18.760Z,11.50
2017-12-04T01:42:46.656Z,13.30
2017-12-04T01:45:14.131Z,9.82
2017-12-04T01:47:41.640Z,8.77
2017-12-04T01:50:09.539Z,10.20
2017-12-04T01:52:37.032Z,10.13
2017-12-04T01:55:04.524Z,9.45
2017-12-04T01:57:32.392Z,10.43
2017-12-04T02:00:00.291Z,10.00
2017-12-04T02:02:27.767Z,8.73
2017-12-04T02:04:57.203Z,9.48
2017-12-04T02:07:25.090Z,9.65
2017-12-04T02:09:53.680Z,7.35
2017-12-04T02:12:22.064Z,10.23
2017-12-04T02:14:49.917Z,8.38
2017-12-04T02:17:17.802Z,8.57
2017-12-04T02:19:46.197Z,11.32
2017-12-04T02:22:14.692Z,9.32
2017-12-04T02:24:42.188Z,7.35
2017-12-04T02:27:10.065Z,9.00
2017-12-04T02:29:37.967Z,9.15
2017-12-04T02:32:05.459Z,9.93
2017-12-04T02:34:32.958Z,7.10
2017-12-04T02:37:00.435Z,7.10
2017-12-04T02:39:29.895Z,9.57
2017-12-04T02:41:57.799Z,10.60
2017-12-04T02:44:25.273Z,7.47
2017-12-04T02:46:52.779Z,7.85
2017-12-04T02:49:20.660Z,8.25
2017-12-04T02:51:48.553Z,8.90
2017-12-04T02:54:16.031Z,9.18
2017-12-04T02:56:43.528Z,8.80
2017-12-04T02:59:11.023Z,6.95
2017-12-04T03:01:38.503Z,8.70
2017-12-04T03:04:06.037Z,8.93
2017-12-04T03:06:33.521Z,6.93
2017-12-04T03:09:01.040Z,8.93
2017-12-04T03:11:28.527Z,8.75
2017-12-04T03:13:56.022Z,8.73
2017-12-04T03:16:23.493Z,7.12
2017-12-04T03:18:51.379Z,10.65
2017-12-04T03:21:18.879Z,8.30
2017-12-04T03:23:46.357Z,9.05
2017-12-04T03:26:13.866Z,11.27
2017-12-04T03:28:41.360Z,9.85
2017-12-04T03:31:09.766Z,8.75
2017-12-04T03:33:38.679Z,8.40
2017-12-04T03:36:06.551Z,8.93
2017-12-04T03:38:36.012Z,10.55
2017-12-04T03:41:03.487Z,8.20
2017-12-04T03:43:31.390Z,8.20
2017-12-04T03:45:58.864Z,8.80
2017-12-04T03:48:26.371Z,8.85
2017-12-04T03:50:54.251Z,9.45
2017-12-04T03:53:22.152Z,10.00
2017-12-04T03:55:49.635Z,9.50
2017-12-04T03:58:17.124Z,9.70
2017-12-04T04:00:44.996Z,8.27
2017-12-04T04:03:12.918Z,9.30
2017-12-04T04:05:40.424Z,10.20
2017-12-04T04:08:07.947Z,8.27
2017-12-04T04:10:35.451Z,10.25
2017-12-04T04:13:02.939Z,9.70
2017-12-04T04:15:31.358Z,9.07
2017-12-04T04:17:58.880Z,10.45
2017-12-04T04:20:29.351Z,10.48
2017-12-04T04:22:57.243Z,11.60
2017-12-04T04:25:24.723Z,8.73
2017-12-04T04:27:52.230Z,8.85
2017-12-04T04:30:19.735Z,8.30
2017-12-04T04:32:47.237Z,9.23
2017-12-04T04:35:15.650Z,10.75
2017-12-04T04:37:44.619Z,9.80
2017-12-04T04:40:12.935Z,9.93
2017-12-04T04:42:40.436Z,12.07
2017-12-04T04:45:07.924Z,9.90
2017-12-04T04:47:35.824Z,9.98
2017-12-04T04:50:03.341Z,11.27
2017-12-04T04:52:31.244Z,11.25
2017-12-04T04:54:58.739Z,10.15
2017-12-04T04:57:26.237Z,9.20
2017-12-04T04:59:54.111Z,11.00
2017-12-04T05:02:22.015Z,9.75
2017-12-04T05:04:49.503Z,11.63
2017-12-04T05:07:16.994Z,9.73
2017-12-04T05:09:44.878Z,10.35
2017-12-04T05:12:13.403Z,9.23
2017-12-04T05:14:40.891Z,9.85
2017-12-04T05:17:09.764Z,9.80
2017-12-04T05:19:37.340Z,10.18
2017-12-04T05:22:05.219Z,9.63
2017-12-04T05:24:34.628Z,7.32
2017-12-04T05:27:02.134Z,12.45
2017-12-04T05:29:29.612Z,9.45
2017-12-04T05:31:57.106Z,8.50
2017-12-04T05:34:24.593Z,8.00
2017-12-04T05:36:52.099Z,8.73
2017-12-04T05:39:19.980Z,10.23
2017-12-04T05:41:47.872Z,11.18
2017-12-04T05:44:15.347Z,10.70
2017-12-04T05:46:43.774Z,8.95
2017-12-04T05:49:11.640Z,9.80
2017-12-04T05:51:39.516Z,9.38
2017-12-04T05:54:07.411Z,7.80
2017-12-04T05:56:34.917Z,9.65
2017-12-04T05:59:02.422Z,10.57
2017-12-04T06:01:29.937Z,8.43
2017-12-04T06:03:57.864Z,8.65
2017-12-04T06:06:25.387Z,6.18
2017-12-04T06:08:53.260Z,8.25
2017-12-04T06:11:20.762Z,8.10
2017-12-04T06:13:48.254Z,10.10
2017-12-04T06:16:16.135Z,6.80
2017-12-04T06:18:44.014Z,8.70
2017-12-04T06:21:12.779Z,7.80
2017-12-04T06:23:40.676Z,9.77
2017-12-04T06:26:09.095Z,9.68
2017-12-04T06:28:36.575Z,9.77
2017-12-04T06:31:05.082Z,8.02
2017-12-04T06:33:32.551Z,7.10
2017-12-04T06:36:00.060Z,8.52
2017-12-04T06:38:27.543Z,8.55
2017-12-04T06:40:55.435Z,7.43
2017-12-04T06:43:22.931Z,7.18
2017-12-04T06:45:50.432Z,8.13
2017-12-04T06:48:18.323Z,7.28
2017-12-04T06:50:46.798Z,7.85
2017-12-04T06:53:14.309Z,9.15
2017-12-04T06:55:41.795Z,9.38
2017-12-04T06:58:11.631Z,6.75
2017-12-04T07:00:39.117Z,8.60
2017-12-04T07:03:06.615Z,8.40
2017-12-04T07:05:34.517Z,8.73
2017-12-04T07:08:02.029Z,10.40
2017-12-04T07:10:29.527Z,7.62
2017-12-04T07:12:57.013Z,8.05
2017-12-04T07:15:24.516Z,7.12
2017-12-04T07:17:52.413Z,6.47
2017-12-04T07:20:19.928Z,7.37
2017-12-04T07:22:47.428Z,7.97
2017-12-04T07:25:18.780Z,6.97
2017-12-04T07:27:46.306Z,5.70
2017-12-04T07:30:14.189Z,8.50
2017-12-04T07:32:41.719Z,8.48
2017-12-04T07:35:09.604Z,7.80
2017-12-04T07:37:37.520Z,8.75
2017-12-04T07:40:05.031Z,8.85
2017-12-04T07:42:32.923Z,7.28
2017-12-04T07:45:00.438Z,8.00
2017-12-04T07:47:27.931Z,6.90
2017-12-04T07:49:55.424Z,8.50
2017-12-04T07:52:22.909Z,7.68
2017-12-04T07:54:50.379Z,7.72
2017-12-04T07:57:18.285Z,7.45
2017-12-04T07:59:46.682Z,8.77
2017-12-04T08:02:14.200Z,7.18
2017-12-04T08:04:41.702Z,7.87
2017-12-04T08:07:10.392Z,8.57
2017-12-04T08:09:38.313Z,6.95
2017-12-04T08:12:05.795Z,7.78
2017-12-04T08:14:33.292Z,7.82
2017-12-04T08:17:00.783Z,9.63
2017-12-04T08:19:28.289Z,8.05
2017-12-04T08:21:55.864Z,6.70
2017-12-04T08:24:23.365Z,6.30
2017-12-04T08:26:50.869Z,7.30
2017-12-04T08:29:18.346Z,8.95
2017-12-04T08:31:45.875Z,9.00
2017-12-04T08:34:13.362Z,8.93
2017-12-04T08:36:40.862Z,6.93
2017-12-04T08:39:08.332Z,6.10
2017-12-04T08:41:35.827Z,5.78
2017-12-04T08:44:03.316Z,7.47
2017-12-04T08:46:31.251Z,5.35
2017-12-04T08:48:58.779Z,6.45
2017-12-04T08:51:26.437Z,7.18
2017-12-04T08:53:54.374Z,7.87
2017-12-04T08:56:22.286Z,7.93
2017-12-04T08:58:49.773Z,7.07
2017-12-04T09:01:17.320Z,8.75
2017-12-04T09:03:44.823Z,7.15
2017-12-04T09:06:12.315Z,6.50
2017-12-04T09:08:39.827Z,7.07
2017-12-04T09:11:07.721Z,8.80
2017-12-04T09:13:36.214Z,6.82
2017-12-04T09:16:03.722Z,6.37
2017-12-04T09:18:31.215Z,7.57
2017-12-04T09:20:58.736Z,8.73
2017-12-04T09:23:26.232Z,6.80
2017-12-04T09:25:53.702Z,6.03
2017-12-04T09:28:21.194Z,6.18
2017-12-04T09:30:50.617Z,7.20
2017-12-04T09:33:18.495Z,8.45
2017-12-04T09:35:46.384Z,7.60
2017-12-04T09:38:13.856Z,9.10
2017-12-04T09:40:41.353Z,8.15
2017-12-04T09:43:08.825Z,6.95
2017-12-04T09:45:36.715Z,8.30
2017-12-04T09:48:04.214Z,9.75
2017-12-04T09:50:31.686Z,7.57
2017-12-04T09:52:59.171Z,8.55
2017-12-04T09:55:28.982Z,9.57
2017-12-04T09:57:57.785Z,7.90
2017-12-04T10:00:25.686Z,8.20
2017-12-04T10:02:53.162Z,7.87
2017-12-04T10:05:20.875Z,8.70
2017-12-04T10:07:48.383Z,8.30
2017-12-04T10:10:15.897Z,6.82
2017-12-04T10:12:43.420Z,5.93
2017-12-04T10:15:11.372Z,6.57
2017-12-04T10:17:40.158Z,7.53
2017-12-04T10:20:07.958Z,7.30
2017-12-04T10:22:37.039Z,7.30
2017-12-04T10:25:05.049Z,9.20
2017-12-04T10:27:37.349Z,7.12
2017-12-04T10:30:05.129Z,8.77
2017-12-04T10:32:32.688Z,7.80
2017-12-04T10:35:00.584Z,7.93
2017-12-04T10:37:29.530Z,7.75
2017-12-04T10:39:58.587Z,6.90
2017-12-04T10:42:26.136Z,7.60
2017-12-04T10:44:54.028Z,8.43
2017-12-04T10:47:22.456Z,7.07
2017-12-04T10:49:49.951Z,6.57
2017-12-04T10:52:17.431Z,9.27
2017-12-04T10:54:44.930Z,8.25
2017-12-04T10:57:14.035Z,6.97
2017-12-04T10:59:41.576Z,7.28
2017-12-04T11:02:10.044Z,7.82
2017-12-04T11:04:37.543Z,6.03
2017-12-04T11:07:05.428Z,6.55
2017-12-04T11:09:34.904Z,8.88
2017-12-04T11:12:02.438Z,7.30
2017-12-04T11:14:29.894Z,8.48
2017-12-04T11:16:57.380Z,7.20
2017-12-04T11:19:25.270Z,7.18
2017-12-04T11:21:52.743Z,5.90
2017-12-04T11:24:20.222Z,7.03
2017-12-04T11:26:49.644Z,7.32
2017-12-04T11:29:17.144Z,8.00
2017-12-04T11:31:45.016Z,5.87
2017-12-04T11:34:12.520Z,6.70
2017-12-04T11:36:39.990Z,6.35
2017-12-04T11:39:07.534Z,6.60
2017-12-04T11:41:34.986Z,6.70
2017-12-04T11:44:02.467Z,5.25
2017-12-04T11:46:29.972Z,5.97
2017-12-04T11:48:59.416Z,7.10
2017-12-04T11:51:26.976Z,5.93
2017-12-04T11:53:54.479Z,5.12
2017-12-04T11:56:22.365Z,6.30
2017-12-04T11:58:49.938Z,6.50
2017-12-04T12:01:17.779Z,6.15
2017-12-04T12:03:45.683Z,5.55
2017-12-04T12:06:13.240Z,5.20
2017-12-04T12:08:40.720Z,7.65
2017-12-04T12:11:08.248Z,5.47
2017-12-04T12:13:35.749Z,6.30
2017-12-04T12:16:03.275Z,6.95
2017-12-04T12:18:30.849Z,7.20
2017-12-04T12:20:59.316Z,5.57
2017-12-04T12:23:26.859Z,5.35
2017-12-04T12:25:54.366Z,6.35
2017-12-04T12:28:21.889Z,6.47
2017-12-04T12:30:49.441Z,6.35
2017-12-04T12:33:17.020Z,5.78
2017-12-04T12:35:44.551Z,5.35
2017-12-04T12:38:12.067Z,4.87
2017-12-04T12:40:39.935Z,5.70
2017-12-04T12:43:07.851Z,6.78
2017-12-04T12:45:37.353Z,7.10
2017-12-04T12:48:04.831Z,5.65
2017-12-04T12:50:32.383Z,5.62
2017-12-04T12:52:59.893Z,5.47
2017-12-04T12:55:27.796Z,5.03
2017-12-04T12:57:55.323Z,6.90
2017-12-04T13:00:23.192Z,6.32
2017-12-04T13:02:51.098Z,4.78
2017-12-04T13:05:18.621Z,5.50
2017-12-04T13:07:46.136Z,6.10
2017-12-04T13:10:14.180Z,5.72
2017-12-04T13:12:41.677Z,4.65
2017-12-04T13:15:09.164Z,6.18
2017-12-04T13:17:38.147Z,6.05
2017-12-04T13:20:06.083Z,5.82
2017-12-04T13:22:33.645Z,5.57
2017-12-04T13:25:01.578Z,5.90
2017-12-04T13:27:29.068Z,6.90
2017-12-04T13:29:56.568Z,5.72
2017-12-04T13:32:35.938Z,5.50
2017-12-04T13:35:15.442Z,5.95
2017-12-04T13:37:42.972Z,5.95
2017-12-04T13:40:10.535Z,6.32
2017-12-04T13:42:38.095Z,5.90
2017-12-04T13:45:06.592Z,6.30
2017-12-04T13:47:34.523Z,4.57
2017-12-04T13:50:02.054Z,6.35
2017-12-04T13:52:29.534Z,5.53
2017-12-04T13:54:57.032Z,4.40
2017-12-04T13:57:24.915Z,6.18
2017-12-04T13:59:52.936Z,4.45
2017-12-04T14:02:20.514Z,4.43
2017-12-04T14:04:48.010Z,5.00
2017-12-04T14:07:16.201Z,6.20
2017-12-04T14:09:43.701Z,4.57
2017-12-04T14:12:11.231Z,5.50
2017-12-04T14:14:38.753Z,3.37
2017-12-04T14:17:06.225Z,4.30
2017-12-04T14:19:33.724Z,4.40
2017-12-04T14:22:01.230Z,5.15
2017-12-04T14:24:28.853Z,4.55
2017-12-04T14:26:58.248Z,4.72
2017-12-04T14:29:27.632Z,5.85
2017-12-04T14:31:55.214Z,3.53
2017-12-04T14:34:22.727Z,4.05
2017-12-04T14:36:50.270Z,5.62
2017-12-04T14:39:17.768Z,5.55
2017-12-04T14:41:45.258Z,4.90
2017-12-04T14:44:12.878Z,3.72
2017-12-04T14:46:40.409Z,4.05
2017-12-04T14:49:08.968Z,5.30
2017-12-04T14:51:36.903Z,4.43
2017-12-04T14:54:04.383Z,4.15
2017-12-04T14:56:31.895Z,4.60
2017-12-04T14:58:59.434Z,4.40
2017-12-04T15:01:26.943Z,4.28
2017-12-04T15:03:55.298Z,3.28
2017-12-04T15:06:22.855Z,3.55
2017-12-04T15:08:54.332Z,3.75
2017-12-04T15:11:21.808Z,4.00
2017-12-04T15:13:51.278Z,3.50
2017-12-04T15:16:18.893Z,4.50
2017-12-04T15:18:46.783Z,3.78
2017-12-04T15:21:16.269Z,4.22
2017-12-04T15:23:44.263Z,4.85
2017-12-04T15:26:11.844Z,4.62
2017-12-04T15:28:39.366Z,3.60
2017-12-04T15:31:07.884Z,3.47
2017-12-04T15:33:35.533Z,5.28
2017-12-04T15:36:03.086Z,4.07
2017-12-04T15:38:30.659Z,3.97
2017-12-04T15:40:58.238Z,4.15
2017-12-04T15:43:26.805Z,4.80
2017-12-04T15:45:54.319Z,5.00
2017-12-04T15:48:22.253Z,4.20
2017-12-04T15:50:49.780Z,4.32
2017-12-04T15:53:18.680Z,3.10
2017-12-04T15:55:46.208Z,3.97
2017-12-04T15:58:13.746Z,5.43
2017-12-04T16:00:42.463Z,5.00
2017-12-04T16:03:10.012Z,5.47
2017-12-04T16:05:41.992Z,4.15
2017-12-04T16:08:10.141Z,4.78
2017-12-04T16:10:38.141Z,4.20
2017-12-04T16:13:05.639Z,3.15
2017-12-04T16:15:33.278Z,5.12
2017-12-04T16:18:00.806Z,5.30
2017-12-04T16:20:28.360Z,4.28
2017-12-04T16:22:55.849Z,4.65
2017-12-04T16:25:23.356Z,5.22
2017-12-04T16:27:51.297Z,4.05
2017-12-04T16:30:19.744Z,4.37
2017-12-04T16:32:47.235Z,4.10
2017-12-04T16:35:14.740Z,4.80
2017-12-04T16:37:42.235Z,5.00
2017-12-04T16:40:09.760Z,3.65
2017-12-04T16:42:37.283Z,5.90
2017-12-04T16:45:05.155Z,4.70
2017-12-04T16:47:33.051Z,4.80
2017-12-04T16:50:00.572Z,5.35
2017-12-04T16:52:30.046Z,3.72
2017-12-04T16:54:57.538Z,3.70
2017-12-04T16:57:25.455Z,4.12
2017-12-04T16:59:53.023Z,4.85
2017-12-04T17:02:20.499Z,4.47
2017-12-04T17:04:47.989Z,4.90
2017-12-04T17:07:15.522Z,3.97
2017-12-04T17:09:43.063Z,4.07
2017-12-04T17:12:10.594Z,4.18
2017-12-04T17:14:38.107Z,3.95
2017-12-04T17:17:05.603Z,5.15
2017-12-04T17:19:33.124Z,4.40
2017-12-04T17:22:01.964Z,3.58
2017-12-04T17:24:29.470Z,4.80
2017-12-04T17:26:57.056Z,3.75
2017-12-04T17:29:24.587Z,4.62
2017-12-04T17:31:52.095Z,4.50
2017-12-04T17:34:19.623Z,5.00
2017-12-04T17:36:47.530Z,3.75
2017-12-04T17:39:15.082Z,4.93
2017-12-04T17:41:43.117Z,5.10
2017-12-04T17:44:12.931Z,5.37
2017-12-04T17:46:40.848Z,4.10
2017-12-04T17:49:08.375Z,4.45
2017-12-04T17:51:36.829Z,4.62
2017-12-04T17:54:04.328Z,5.25
2017-12-04T17:56:31.834Z,4.97
2017-12-04T17:58:59.356Z,4.40
2017-12-04T18:01:26.882Z,4.78
2017-12-04T18:03:54.769Z,4.75
2017-12-04T18:06:22.284Z,5.40
2017-12-04T18:08:49.855Z,5.18
2017-12-04T18:11:17.720Z,6.10
2017-12-04T18:13:45.641Z,4.95
2017-12-04T18:16:13.124Z,6.22
2017-12-04T18:18:41.404Z,4.53
2017-12-04T18:21:08.904Z,5.75
2017-12-04T18:23:36.384Z,4.55
2017-12-04T18:26:03.879Z,4.75
2017-12-04T18:28:31.390Z,5.25
2017-12-04T18:30:58.908Z,5.32
2017-12-04T18:33:26.854Z,5.05
2017-12-04T18:35:54.356Z,4.57
2017-12-04T18:38:21.860Z,5.85
2017-12-04T18:40:49.344Z,5.85
2017-12-04T18:43:16.822Z,5.20
2017-12-04T18:45:44.750Z,6.68
2017-12-04T18:48:12.284Z,5.65
2017-12-04T18:50:39.794Z,5.53
2017-12-04T18:53:09.247Z,7.60
2017-12-04T18:55:36.768Z,5.22
2017-12-04T18:58:04.669Z,7.35
2017-12-04T19:00:32.199Z,6.35
2017-12-04T19:02:59.695Z,5.62
2017-12-04T19:05:27.200Z,7.22
2017-12-04T19:07:54.675Z,6.75
2017-12-04T19:10:24.176Z,6.30
2017-12-04T19:12:52.065Z,6.97
2017-12-04T19:15:19.584Z,7.60
2017-12-04T19:17:47.119Z,5.78
2017-12-04T19:20:14.620Z,6.78
2017-12-04T19:22:42.568Z,7.40
2017-12-04T19:25:10.094Z,7.55
2017-12-04T19:27:37.675Z,6.40
2017-12-04T19:30:05.219Z,7.25
2017-12-04T19:32:32.721Z,6.85
2017-12-04T19:35:00.636Z,7.07
2017-12-04T19:37:28.174Z,7.75
2017-12-04T19:39:55.763Z,6.50
2017-12-04T19:42:23.319Z,7.15
2017-12-04T19:44:51.212Z,6.70
2017-12-04T19:47:18.781Z,7.80
2017-12-04T19:49:46.279Z,7.75
2017-12-04T19:52:13.760Z,7.00
2017-12-04T19:54:41.257Z,8.10
2017-12-04T19:57:09.208Z,7.60
2017-12-04T19:59:37.622Z,7.35
2017-12-04T20:02:06.523Z,7.78
2017-12-04T20:04:34.072Z,7.57
2017-12-04T20:07:02.879Z,6.85
2017-12-04T20:09:30.458Z,8.40
2017-12-04T20:11:57.949Z,7.45
2017-12-04T20:14:27.536Z,8.07
2017-12-04T20:16:57.031Z,7.05
2017-12-04T20:19:24.625Z,5.90
2017-12-04T20:21:52.149Z,7.82
2017-12-04T20:24:21.742Z,7.20
2017-12-04T20:26:49.218Z,7.35
2017-12-04T20:29:18.683Z,7.70
2017-12-04T20:31:46.163Z,7.45
2017-12-04T20:34:14.415Z,7.32
2017-12-04T20:36:41.916Z,8.95
2017-12-04T20:39:09.388Z,7.97
2017-12-04T20:41:36.936Z,8.38
2017-12-04T20:44:05.453Z,6.72
2017-12-04T20:46:34.674Z,6.35
2017-12-04T20:49:02.179Z,7.97
2017-12-04T20:51:29.715Z,7.82
2017-12-04T20:53:58.309Z,10.02
2017-12-04T20:56:25.836Z,7.32
2017-12-04T20:58:53.736Z,8.50
2017-12-04T21:01:21.307Z,7.72
2017-12-04T21:03:50.223Z,7.65
2017-12-04T21:06:17.776Z,7.82
2017-12-04T21:08:57.051Z,7.32
2017-12-04T21:11:36.319Z,6.50
2017-12-04T21:14:17.776Z,8.27
2017-12-04T21:16:58.165Z,7.65
2017-12-04T21:19:25.719Z,7.87
2017-12-04T21:21:54.044Z,7.75
2017-12-04T21:24:21.934Z,9.20
2017-12-04T21:26:50.388Z,8.85
2017-12-04T21:29:18.299Z,8.27
2017-12-04T21:31:45.804Z,7.12
2017-12-04T21:34:13.788Z,8.93
2017-12-04T21:36:41.316Z,7.90
2017-12-04T21:39:08.873Z,11.15
2017-12-04T21:41:36.447Z,9.32
2017-12-04T21:44:03.963Z,8.70
2017-12-04T21:46:31.523Z,10.73
2017-12-04T21:48:59.107Z,9.25
2017-12-04T21:51:27.176Z,9.57
2017-12-04T21:53:54.712Z,7.80
2017-12-04T21:56:22.239Z,8.98
2017-12-04T21:58:52.192Z,8.70
2017-12-04T22:01:21.392Z,9.35
2017-12-04T22:03:48.954Z,8.65
2017-12-04T22:06:17.501Z,9.93
2017-12-04T22:08:45.054Z,8.45
2017-12-04T22:11:12.976Z,7.97
2017-12-04T22:13:40.753Z,10.07
2017-12-04T22:16:08.252Z,8.80
2017-12-04T22:18:35.811Z,8.90
2017-12-04T22:21:03.355Z,9.13
2017-12-04T22:23:31.587Z,11.35
2017-12-04T22:26:01.857Z,8.90
2017-12-04T22:28:29.789Z,9.02
2017-12-04T22:30:57.367Z,10.30
2017-12-04T22:33:24.851Z,10.02
2017-12-04T22:35:52.532Z,10.52
2017-12-04T22:38:21.070Z,11.52
2017-12-04T22:40:48.643Z,10.20
2017-12-04T22:43:16.780Z,9.85
2017-12-04T22:45:44.280Z,9.63
2017-12-04T22:48:12.204Z,9.48
2017-12-04T22:50:39.710Z,8.30
2017-12-04T22:53:07.207Z,11.65
2017-12-04T22:55:37.612Z,9.02
2017-12-04T22:58:05.579Z,8.50
2017-12-04T23:00:33.093Z,9.27
2017-12-04T23:03:00.624Z,9.32
2017-12-04T23:05:31.771Z,7.37
2017-12-04T23:07:59.327Z,8.93
2017-12-04T23:10:26.916Z,7.60
2017-12-04T23:12:54.947Z,9.02
2017-12-04T23:15:23.516Z,7.03
2017-12-04T23:17:51.054Z,8.57
2017-12-04T23:20:18.684Z,8.82
2017-12-04T23:22:46.189Z,9.35
2017-12-04T23:25:13.687Z,9.27
2017-12-04T23:27:41.268Z,9.98
2017-12-04T23:30:08.832Z,7.90
2017-12-04T23:32:37.791Z,9.80
2017-12-04T23:35:06.315Z,8.98
2017-12-04T23:37:34.266Z,7.10
2017-12-04T23:40:02.216Z,8.00
2017-12-04T23:42:30.731Z,7.15
2017-12-04T23:44:59.644Z,9.60
2017-12-04T23:47:27.554Z,8.38
2017-12-04T23:49:55.148Z,7.75
2017-12-04T23:52:23.159Z,8.68
2017-12-04T23:54:50.735Z,8.80
2017-12-04T23:57:19.989Z,9.10
2017-12-04T23:59:48.987Z,8.48
